createdAt,value
2023-08-23T00:00:39.341Z,48.35
2023-08-23T00:01:41.191Z,48.39
2023-08-23T00:02:43.070Z,48.61
2023-08-23T00:03:44.770Z,48.88
2023-08-23T00:04:48.970Z,48.53
2023-08-23T00:05:50.670Z,48.65
2023-08-23T00:06:52.356Z,48.76
2023-08-23T00:07:54.249Z,49.14
2023-08-23T00:08:55.929Z,49.01
2023-08-23T00:10:00.197Z,48.90
2023-08-23T00:11:01.998Z,48.58
2023-08-23T00:12:03.922Z,48.38
2023-08-23T00:13:05.588Z,48.69
2023-08-23T00:14:10.188Z,49.01
2023-08-23T00:15:11.852Z,49.00
2023-08-23T00:16:13.497Z,48.79
2023-08-23T00:17:15.282Z,48.85
2023-08-23T00:18:17.027Z,48.81
2023-08-23T00:19:18.647Z,48.71
2023-08-23T00:20:20.783Z,48.75
2023-08-23T00:21:22.625Z,48.36
2023-08-23T00:22:24.391Z,49.02
2023-08-23T00:23:31.146Z,48.99
2023-08-23T00:24:32.851Z,48.89
2023-08-23T00:25:34.541Z,48.61
2023-08-23T00:26:36.283Z,48.79
2023-08-23T00:27:38.003Z,49.01
2023-08-23T00:28:39.794Z,49.17
2023-08-23T00:29:42.504Z,49.10
2023-08-23T00:30:54.887Z,49.59
2023-08-23T00:31:56.713Z,49.34
2023-08-23T00:32:58.481Z,49.82
2023-08-23T00:34:02.390Z,49.78
2023-08-23T00:35:04.518Z,49.64
2023-08-23T00:36:06.396Z,50.13
2023-08-23T00:37:08.194Z,49.89
2023-08-23T00:38:12.039Z,50.33
2023-08-23T00:39:14.097Z,50.32
2023-08-23T00:40:20.145Z,50.07
2023-08-23T00:41:24.375Z,50.32
2023-08-23T00:42:26.135Z,50.70
2023-08-23T00:43:28.010Z,50.48
2023-08-23T00:44:29.713Z,50.71
2023-08-23T00:45:35.653Z,50.12
2023-08-23T00:46:37.519Z,50.54
2023-08-23T00:47:39.435Z,50.34
2023-08-23T00:48:46.178Z,50.54
2023-08-23T00:49:48.488Z,50.60
2023-08-23T00:50:52.649Z,50.35
2023-08-23T00:51:54.880Z,50.07
2023-08-23T00:52:57.367Z,50.37
2023-08-23T00:54:01.870Z,50.01
2023-08-23T00:55:03.829Z,50.01
2023-08-23T00:56:05.759Z,50.25
2023-08-23T00:57:08.728Z,50.39
2023-08-23T00:58:10.803Z,50.04
2023-08-23T00:59:12.629Z,50.07
2023-08-23T01:00:15.395Z,50.08
2023-08-23T01:01:17.524Z,50.06
2023-08-23T01:02:19.077Z,50.27
2023-08-23T01:03:23.971Z,50.38
2023-08-23T01:04:25.819Z,50.03
2023-08-23T01:05:43.438Z,50.38
2023-08-23T01:06:58.222Z,50.40
2023-08-23T01:08:10.494Z,50.60
2023-08-23T01:09:33.961Z,50.42
2023-08-23T01:10:47.983Z,50.43
2023-08-23T01:12:09.427Z,50.39
2023-08-23T01:13:33.114Z,50.41
2023-08-23T01:15:11.482Z,50.36
2023-08-23T01:16:17.193Z,50.63
2023-08-23T01:17:20.991Z,50.40
2023-08-23T01:18:24.840Z,50.58
2023-08-23T01:19:29.326Z,50.84
2023-08-23T01:20:32.862Z,50.92
2023-08-23T01:21:38.707Z,50.83
2023-08-23T01:22:50.161Z,50.46
2023-08-23T01:23:52.845Z,50.88
2023-08-23T01:24:54.779Z,50.75
2023-08-23T01:25:56.747Z,50.79
2023-08-23T01:27:00.752Z,50.63
2023-08-23T01:28:02.696Z,50.96
2023-08-23T01:29:05.818Z,50.94
2023-08-23T01:30:07.994Z,50.83
2023-08-23T01:31:13.036Z,50.86
2023-08-23T01:32:22.638Z,50.32
2023-08-23T01:33:34.552Z,50.73
2023-08-23T01:34:41.681Z,50.41
2023-08-23T01:35:48.963Z,51.10
2023-08-23T01:36:52.220Z,50.95
2023-08-23T01:37:55.867Z,51.29
2023-08-23T01:38:58.811Z,50.63
2023-08-23T01:40:02.836Z,50.70
2023-08-23T01:41:06.587Z,50.89
2023-08-23T01:42:09.441Z,51.01
2023-08-23T01:43:11.253Z,51.24
2023-08-23T01:44:12.986Z,51.04
2023-08-23T01:45:15.297Z,51.19
2023-08-23T01:46:17.046Z,50.84
2023-08-23T01:47:19.743Z,51.18
2023-08-23T01:48:21.568Z,50.93
2023-08-23T01:49:25.412Z,50.83
2023-08-23T01:50:27.072Z,51.05
2023-08-23T01:51:29.133Z,51.07
2023-08-23T01:52:30.869Z,51.17
2023-08-23T01:53:32.547Z,51.12
2023-08-23T01:54:34.291Z,51.16
2023-08-23T01:55:36.023Z,50.88
2023-08-23T01:56:37.751Z,50.84
2023-08-23T01:57:41.414Z,50.84
2023-08-23T01:58:43.195Z,50.73
2023-08-23T01:59:45.899Z,50.75
2023-08-23T02:00:48.679Z,50.58
2023-08-23T02:01:50.612Z,50.57
2023-08-23T02:02:54.817Z,50.57
2023-08-23T02:03:56.681Z,50.46
2023-08-23T02:04:58.260Z,51.15
2023-08-23T02:06:00.070Z,50.61
2023-08-23T02:07:01.836Z,50.64
2023-08-23T02:08:07.857Z,50.63
2023-08-23T02:09:09.494Z,50.86
2023-08-23T02:10:11.251Z,50.98
2023-08-23T02:11:15.224Z,50.67
2023-08-23T02:12:19.044Z,50.79
2023-08-23T02:13:22.931Z,50.66
2023-08-23T02:14:25.440Z,50.88
2023-08-23T02:15:29.650Z,50.86
2023-08-23T02:16:31.590Z,50.59
2023-08-23T02:17:33.272Z,50.80
2023-08-23T02:18:34.833Z,50.83
2023-08-23T02:19:36.663Z,51.00
2023-08-23T02:20:38.605Z,50.61
2023-08-23T02:21:40.208Z,50.78
2023-08-23T02:22:41.958Z,50.67
2023-08-23T02:23:43.578Z,51.16
2023-08-23T02:24:46.697Z,50.92
2023-08-23T02:25:48.459Z,51.17
2023-08-23T02:26:49.981Z,50.93
2023-08-23T02:27:54.138Z,51.35
2023-08-23T02:28:58.220Z,51.62
2023-08-23T02:29:59.835Z,51.22
2023-08-23T02:31:04.370Z,51.63
2023-08-23T02:32:06.254Z,51.71
2023-08-23T02:33:10.181Z,51.95
2023-08-23T02:34:11.945Z,51.88
2023-08-23T02:35:13.989Z,51.54
2023-08-23T02:36:21.448Z,51.72
2023-08-23T02:37:23.203Z,51.88
2023-08-23T02:38:25.127Z,52.16
2023-08-23T02:39:31.788Z,52.12
2023-08-23T02:40:33.446Z,51.88
2023-08-23T02:41:35.504Z,52.42
2023-08-23T02:42:37.031Z,52.34
2023-08-23T02:43:39.339Z,52.53
2023-08-23T02:44:44.601Z,52.09
2023-08-23T02:45:46.225Z,52.48
2023-08-23T02:46:47.800Z,52.77
2023-08-23T02:47:50.171Z,52.34
2023-08-23T02:48:55.010Z,52.75
2023-08-23T02:49:57.233Z,52.12
2023-08-23T02:51:01.131Z,52.42
2023-08-23T02:52:02.894Z,52.06
2023-08-23T02:53:04.964Z,51.94
2023-08-23T02:54:06.800Z,52.32
2023-08-23T02:55:08.743Z,52.34
2023-08-23T02:56:10.413Z,52.05
2023-08-23T02:57:12.034Z,52.02
2023-08-23T02:58:14.024Z,51.98
2023-08-23T02:59:15.675Z,52.15
2023-08-23T03:00:17.566Z,52.48
2023-08-23T03:01:19.412Z,52.29
2023-08-23T03:02:21.254Z,52.09
2023-08-23T03:03:23.027Z,52.17
2023-08-23T03:04:24.746Z,52.17
2023-08-23T03:05:26.432Z,51.96
2023-08-23T03:06:28.170Z,51.92
2023-08-23T03:07:29.975Z,51.67
2023-08-23T03:08:31.548Z,51.81
2023-08-23T03:09:33.390Z,51.63
2023-08-23T03:10:37.642Z,51.65
2023-08-23T03:11:39.405Z,51.83
2023-08-23T03:12:41.628Z,51.56
2023-08-23T03:13:43.204Z,51.96
2023-08-23T03:14:44.881Z,52.01
2023-08-23T03:15:54.589Z,52.01
2023-08-23T03:16:56.352Z,51.72
2023-08-23T03:17:58.118Z,51.82
2023-08-23T03:19:02.648Z,52.02
2023-08-23T03:20:06.028Z,52.17
2023-08-23T03:21:09.116Z,52.22
2023-08-23T03:22:13.805Z,51.97
2023-08-23T03:23:20.666Z,52.13
2023-08-23T03:24:24.029Z,51.62
2023-08-23T03:25:26.400Z,51.63
2023-08-23T03:26:28.150Z,51.92
2023-08-23T03:27:32.235Z,52.01
2023-08-23T03:28:34.139Z,51.69
2023-08-23T03:29:39.602Z,52.12
2023-08-23T03:30:43.093Z,51.80
2023-08-23T03:31:47.211Z,51.76
2023-08-23T03:32:53.403Z,52.14
2023-08-23T03:33:56.410Z,51.87
2023-08-23T03:34:58.268Z,52.25
2023-08-23T03:36:00.041Z,52.30
2023-08-23T03:37:02.967Z,51.89
2023-08-23T03:38:04.983Z,51.81
2023-08-23T03:39:06.673Z,52.21
2023-08-23T03:40:08.317Z,52.12
2023-08-23T03:41:14.286Z,52.34
2023-08-23T03:42:15.992Z,52.48
2023-08-23T03:43:17.704Z,52.67
2023-08-23T03:44:20.819Z,52.34
2023-08-23T03:45:25.087Z,52.34
2023-08-23T03:46:31.145Z,52.28
2023-08-23T03:47:33.202Z,52.52
2023-08-23T03:48:35.295Z,52.33
2023-08-23T03:49:37.244Z,52.79
2023-08-23T03:50:39.654Z,52.42
2023-08-23T03:51:41.218Z,52.74
2023-08-23T03:52:43.073Z,52.44
2023-08-23T03:53:45.474Z,52.77
2023-08-23T03:54:47.519Z,52.61
2023-08-23T03:55:53.077Z,52.91
2023-08-23T03:56:54.810Z,52.86
2023-08-23T03:57:56.444Z,53.28
2023-08-23T03:58:59.495Z,53.00
2023-08-23T04:00:01.244Z,52.93
2023-08-23T04:01:02.856Z,52.97
2023-08-23T04:02:04.699Z,52.83
2023-08-23T04:03:06.809Z,52.89
2023-08-23T04:04:08.722Z,52.86
2023-08-23T04:05:13.075Z,53.25
2023-08-23T04:06:15.082Z,52.86
2023-08-23T04:07:16.788Z,53.23
2023-08-23T04:08:19.261Z,52.83
2023-08-23T04:09:20.982Z,52.76
2023-08-23T04:10:25.070Z,52.82
2023-08-23T04:11:26.719Z,52.72
2023-08-23T04:12:28.278Z,52.92
2023-08-23T04:13:30.639Z,52.82
2023-08-23T04:14:32.410Z,53.33
2023-08-23T04:15:37.268Z,53.19
2023-08-23T04:16:39.447Z,53.37
2023-08-23T04:17:41.175Z,53.36
2023-08-23T04:18:42.978Z,53.69
2023-08-23T04:19:44.527Z,53.46
2023-08-23T04:20:46.152Z,53.66
2023-08-23T04:21:48.505Z,53.26
2023-08-23T04:22:50.223Z,53.11
2023-08-23T04:23:54.521Z,53.43
2023-08-23T04:24:56.637Z,53.59
2023-08-23T04:25:58.325Z,53.61
2023-08-23T04:26:59.863Z,53.38
2023-08-23T04:28:01.812Z,53.51
2023-08-23T04:29:06.175Z,53.43
2023-08-23T04:30:11.199Z,53.20
2023-08-23T04:31:15.069Z,53.07
2023-08-23T04:32:28.712Z,53.32
2023-08-23T04:33:30.729Z,53.41
2023-08-23T04:34:35.133Z,53.48
2023-08-23T04:35:39.276Z,53.48
2023-08-23T04:36:40.960Z,53.76
2023-08-23T04:37:42.744Z,53.50
2023-08-23T04:38:44.920Z,53.96
2023-08-23T04:39:48.087Z,53.98
2023-08-23T04:40:49.916Z,53.67
2023-08-23T04:41:51.788Z,53.98
2023-08-23T04:42:53.885Z,53.86
2023-08-23T04:43:55.473Z,54.14
2023-08-23T04:44:57.326Z,53.97
2023-08-23T04:46:00.143Z,54.11
2023-08-23T04:47:02.045Z,53.56
2023-08-23T04:48:06.492Z,53.72
2023-08-23T04:49:08.615Z,53.63
2023-08-23T04:50:10.595Z,53.96
2023-08-23T04:51:15.330Z,53.83
2023-08-23T04:52:17.247Z,53.71
2023-08-23T04:53:19.448Z,53.78
2023-08-23T04:54:23.210Z,53.43
2023-08-23T04:55:25.481Z,53.67
2023-08-23T04:56:29.991Z,54.02
2023-08-23T04:57:31.694Z,53.44
2023-08-23T04:58:33.437Z,53.90
2023-08-23T04:59:35.839Z,53.65
2023-08-23T05:00:37.710Z,53.67
2023-08-23T05:01:41.865Z,53.68
2023-08-23T05:02:45.846Z,53.98
2023-08-23T05:03:49.777Z,53.59
2023-08-23T05:04:51.455Z,53.96
2023-08-23T05:05:58.534Z,53.59
2023-08-23T05:07:00.206Z,53.94
2023-08-23T05:08:05.574Z,53.48
2023-08-23T05:09:07.705Z,53.79
2023-08-23T05:10:09.558Z,53.62
2023-08-23T05:11:13.533Z,53.43
2023-08-23T05:12:15.907Z,53.74
2023-08-23T05:13:19.844Z,53.52
2023-08-23T05:14:21.579Z,53.30
2023-08-23T05:15:23.934Z,53.39
2023-08-23T05:16:25.764Z,53.62
2023-08-23T05:17:27.536Z,53.62
2023-08-23T05:18:29.369Z,53.27
2023-08-23T05:19:30.976Z,53.90
2023-08-23T05:20:32.767Z,53.21
2023-08-23T05:21:35.085Z,52.94
2023-08-23T05:22:36.908Z,53.37
2023-08-23T05:23:38.762Z,53.40
2023-08-23T05:24:43.118Z,52.88
2023-08-23T05:25:45.963Z,52.75
2023-08-23T05:26:47.594Z,52.90
2023-08-23T05:27:49.710Z,52.99
2023-08-23T05:28:54.027Z,52.60
2023-08-23T05:30:00.652Z,52.84
2023-08-23T05:31:04.162Z,52.74
2023-08-23T05:32:06.303Z,52.35
2023-08-23T05:33:08.030Z,52.66
2023-08-23T05:34:09.938Z,52.51
2023-08-23T05:35:11.991Z,52.45
2023-08-23T05:36:15.833Z,52.50
2023-08-23T05:37:20.508Z,52.17
2023-08-23T05:38:24.391Z,51.90
2023-08-23T05:39:26.878Z,52.34
2023-08-23T05:40:28.553Z,52.11
2023-08-23T05:41:30.406Z,52.00
2023-08-23T05:42:34.665Z,52.03
2023-08-23T05:43:36.674Z,52.18
2023-08-23T05:44:38.265Z,51.93
2023-08-23T05:45:42.135Z,52.01
2023-08-23T05:46:44.194Z,51.85
2023-08-23T05:47:47.383Z,51.68
2023-08-23T05:48:50.441Z,51.56
2023-08-23T05:49:54.550Z,51.87
2023-08-23T05:50:56.475Z,51.59
2023-08-23T05:51:58.201Z,51.51
2023-08-23T05:53:00.225Z,51.65
2023-08-23T05:54:01.869Z,51.53
2023-08-23T05:55:03.641Z,51.71
2023-08-23T05:56:06.609Z,51.63
2023-08-23T05:57:08.944Z,51.71
2023-08-23T05:58:10.648Z,51.49
2023-08-23T05:59:12.453Z,51.53
2023-08-23T06:00:15.297Z,51.51
2023-08-23T06:01:18.562Z,51.19
2023-08-23T06:02:20.380Z,51.46
2023-08-23T06:03:22.319Z,51.26
2023-08-23T06:04:26.306Z,51.14
2023-08-23T06:05:30.487Z,51.02
2023-08-23T06:06:32.263Z,50.93
2023-08-23T06:07:34.321Z,50.76
2023-08-23T06:08:38.312Z,50.56
2023-08-23T06:09:39.973Z,50.68
2023-08-23T06:10:41.699Z,50.55
2023-08-23T06:11:43.778Z,50.89
2023-08-23T06:12:45.455Z,50.40
2023-08-23T06:13:51.868Z,50.61
2023-08-23T06:14:53.721Z,50.50
2023-08-23T06:15:55.454Z,50.29
2023-08-23T06:16:57.215Z,50.50
2023-08-23T06:18:01.618Z,50.03
2023-08-23T06:19:04.572Z,50.10
2023-08-23T06:20:07.732Z,49.77
2023-08-23T06:21:09.562Z,49.90
2023-08-23T06:22:11.213Z,49.44
2023-08-23T06:23:13.179Z,49.78
2023-08-23T06:24:15.191Z,49.55
2023-08-23T06:25:16.828Z,49.26
2023-08-23T06:26:18.388Z,49.23
2023-08-23T06:27:20.380Z,49.31
2023-08-23T06:28:22.363Z,49.01
2023-08-23T06:29:24.112Z,48.98
2023-08-23T06:30:25.826Z,48.67
2023-08-23T06:31:27.632Z,48.25
2023-08-23T06:32:32.531Z,48.32
2023-08-23T06:33:34.237Z,48.76
2023-08-23T06:34:36.587Z,48.15
2023-08-23T06:35:40.653Z,48.19
2023-08-23T06:36:42.440Z,47.82
2023-08-23T06:37:44.677Z,47.51
2023-08-23T06:38:46.565Z,47.50
2023-08-23T06:39:50.673Z,47.33
2023-08-23T06:40:54.743Z,46.88
2023-08-23T06:41:58.733Z,47.05
2023-08-23T06:43:03.020Z,46.87
2023-08-23T06:44:08.475Z,46.81
2023-08-23T06:45:11.013Z,47.11
2023-08-23T06:46:12.857Z,46.60
2023-08-23T06:47:14.560Z,46.53
2023-08-23T06:48:16.651Z,46.31
2023-08-23T06:49:18.485Z,46.41
2023-08-23T06:50:20.408Z,46.82
2023-08-23T06:51:22.846Z,46.45
2023-08-23T06:52:27.671Z,46.29
2023-08-23T06:53:29.447Z,46.58
2023-08-23T06:54:31.616Z,46.59
2023-08-23T06:55:33.806Z,46.31
2023-08-23T06:56:36.371Z,46.05
2023-08-23T06:57:41.006Z,46.21
2023-08-23T06:58:44.908Z,46.20
2023-08-23T06:59:46.619Z,46.04
2023-08-23T07:00:48.333Z,46.03
2023-08-23T07:01:50.389Z,46.05
2023-08-23T07:02:52.387Z,46.30
2023-08-23T07:03:54.262Z,46.32
2023-08-23T07:04:56.336Z,46.12
2023-08-23T07:06:06.087Z,46.02
2023-08-23T07:07:09.880Z,46.00
2023-08-23T07:08:11.843Z,45.91
2023-08-23T07:09:16.651Z,45.67
2023-08-23T07:10:28.224Z,45.40
2023-08-23T07:11:31.053Z,45.36
2023-08-23T07:12:32.878Z,45.49
2023-08-23T07:13:35.673Z,44.86
2023-08-23T07:14:37.434Z,44.88
2023-08-23T07:15:41.713Z,44.61
2023-08-23T07:16:43.550Z,44.64
2023-08-23T07:17:45.602Z,44.60
2023-08-23T07:18:47.587Z,44.52
2023-08-23T07:19:49.342Z,44.83
2023-08-23T07:20:51.155Z,44.68
2023-08-23T07:21:52.866Z,44.30
2023-08-23T07:22:57.027Z,44.25
2023-08-23T07:23:58.893Z,44.46
2023-08-23T07:25:03.262Z,44.42
2023-08-23T07:26:05.555Z,44.62
2023-08-23T07:27:07.424Z,44.35
2023-08-23T07:28:09.124Z,44.07
2023-08-23T07:29:13.071Z,43.91
2023-08-23T07:30:15.014Z,43.92
2023-08-23T07:31:17.718Z,43.79
2023-08-23T07:32:21.805Z,43.53
2023-08-23T07:33:25.000Z,43.55
2023-08-23T07:34:26.974Z,43.07
2023-08-23T07:35:28.775Z,43.36
2023-08-23T07:36:32.842Z,43.02
2023-08-23T07:37:34.594Z,42.99
2023-08-23T07:38:41.817Z,42.98
2023-08-23T07:39:43.492Z,42.94
2023-08-23T07:40:45.180Z,43.04
2023-08-23T07:41:46.821Z,43.00
2023-08-23T07:42:50.931Z,42.87
2023-08-23T07:43:54.656Z,42.51
2023-08-23T07:44:56.448Z,42.27
2023-08-23T07:46:00.007Z,42.35
2023-08-23T07:47:02.190Z,41.78
2023-08-23T07:48:04.298Z,42.03
2023-08-23T07:49:08.256Z,42.30
2023-08-23T07:50:12.457Z,42.26
2023-08-23T07:51:14.174Z,42.18
2023-08-23T07:52:15.977Z,41.65
2023-08-23T07:53:18.095Z,41.88
2023-08-23T07:54:19.755Z,41.80
2023-08-23T07:55:21.464Z,41.57
2023-08-23T07:56:23.145Z,41.45
2023-08-23T07:57:24.990Z,41.39
2023-08-23T07:58:26.918Z,41.27
2023-08-23T07:59:28.669Z,41.25
2023-08-23T08:00:32.816Z,41.01
2023-08-23T08:01:36.916Z,40.83
2023-08-23T08:02:41.616Z,40.84
2023-08-23T08:03:49.047Z,40.86
2023-08-23T08:04:53.152Z,41.22
2023-08-23T08:05:54.840Z,41.04
2023-08-23T08:06:57.596Z,41.11
2023-08-23T08:08:08.254Z,40.82
2023-08-23T08:09:11.268Z,40.95
2023-08-23T08:10:13.072Z,40.86
2023-08-23T08:11:16.224Z,40.72
2023-08-23T08:12:17.946Z,40.82
2023-08-23T08:13:19.664Z,41.00
2023-08-23T08:14:21.387Z,41.01
2023-08-23T08:15:26.050Z,40.91
2023-08-23T08:16:27.776Z,41.03
2023-08-23T08:17:29.592Z,40.86
2023-08-23T08:18:31.602Z,40.79
2023-08-23T08:19:35.390Z,40.81
2023-08-23T08:20:37.287Z,40.92
2023-08-23T08:21:42.062Z,40.94
2023-08-23T08:22:43.822Z,41.07
2023-08-23T08:23:47.666Z,40.97
2023-08-23T08:24:49.543Z,40.89
2023-08-23T08:25:51.989Z,40.82
2023-08-23T08:26:53.710Z,40.56
2023-08-23T08:27:55.415Z,40.43
2023-08-23T08:28:57.157Z,40.49
2023-08-23T08:29:59.673Z,40.74
2023-08-23T08:31:01.497Z,40.86
2023-08-23T08:32:03.188Z,40.52
2023-08-23T08:33:07.812Z,40.50
2023-08-23T08:34:10.134Z,40.49
2023-08-23T08:35:11.876Z,40.28
2023-08-23T08:36:16.140Z,40.44
2023-08-23T08:37:22.932Z,40.47
2023-08-23T08:38:24.770Z,40.48
2023-08-23T08:39:26.584Z,40.68
2023-08-23T08:40:28.326Z,40.38
2023-08-23T08:41:30.147Z,40.55
2023-08-23T08:42:32.915Z,40.47
2023-08-23T08:43:35.233Z,40.24
2023-08-23T08:44:37.270Z,40.19
2023-08-23T08:45:39.178Z,40.20
2023-08-23T08:46:40.889Z,40.33
2023-08-23T08:47:43.337Z,40.22
2023-08-23T08:48:46.276Z,40.42
2023-08-23T08:49:48.059Z,40.59
2023-08-23T08:50:50.374Z,40.71
2023-08-23T08:52:00.927Z,40.28
2023-08-23T08:53:07.482Z,39.98
2023-08-23T08:54:10.897Z,40.04
2023-08-23T08:55:13.302Z,39.89
2023-08-23T08:56:16.281Z,39.94
2023-08-23T08:57:18.413Z,39.75
2023-08-23T08:58:23.020Z,39.78
2023-08-23T08:59:27.752Z,39.74
2023-08-23T09:00:31.656Z,39.50
2023-08-23T09:01:36.552Z,39.39
2023-08-23T09:02:39.365Z,39.15
2023-08-23T09:03:42.428Z,38.83
2023-08-23T09:04:49.294Z,39.22
2023-08-23T09:05:52.593Z,39.27
2023-08-23T09:06:54.495Z,39.18
2023-08-23T09:07:57.847Z,39.18
2023-08-23T09:09:01.934Z,38.85
2023-08-23T09:10:04.765Z,39.16
2023-08-23T09:11:06.509Z,39.12
2023-08-23T09:12:13.154Z,38.89
2023-08-23T09:13:14.969Z,39.14
2023-08-23T09:14:22.328Z,38.84
2023-08-23T09:15:26.897Z,38.71
2023-08-23T09:16:28.795Z,38.58
2023-08-23T09:17:34.684Z,38.26
2023-08-23T09:18:36.465Z,38.25
2023-08-23T09:19:41.685Z,38.15
2023-08-23T09:20:43.908Z,37.97
2023-08-23T09:21:46.915Z,37.73
2023-08-23T09:22:53.293Z,37.52
2023-08-23T09:23:55.956Z,37.79
2023-08-23T09:24:57.610Z,37.82
2023-08-23T09:26:01.633Z,38.18
2023-08-23T09:27:03.514Z,37.96
2023-08-23T09:28:13.363Z,37.79
2023-08-23T09:29:15.038Z,37.69
2023-08-23T09:30:16.904Z,37.98
2023-08-23T09:31:18.675Z,37.47
2023-08-23T09:32:20.339Z,37.19
2023-08-23T09:33:22.670Z,37.22
2023-08-23T09:34:26.976Z,37.28
2023-08-23T09:35:30.668Z,36.28
2023-08-23T09:36:41.193Z,36.05
2023-08-23T09:37:50.676Z,35.93
2023-08-23T09:38:52.574Z,36.10
2023-08-23T09:39:54.535Z,35.77
2023-08-23T09:40:57.728Z,35.65
2023-08-23T09:42:09.792Z,35.82
2023-08-23T09:43:15.720Z,35.79
2023-08-23T09:44:19.612Z,35.46
2023-08-23T09:45:23.384Z,35.36
2023-08-23T09:46:28.978Z,35.29
2023-08-23T09:47:35.909Z,35.69
2023-08-23T09:48:42.277Z,35.38
2023-08-23T09:49:45.760Z,35.77
2023-08-23T09:50:54.004Z,35.40
2023-08-23T09:51:56.307Z,35.43
2023-08-23T09:53:05.614Z,34.95
2023-08-23T09:54:10.254Z,35.17
2023-08-23T09:55:15.866Z,35.26
2023-08-23T09:56:17.855Z,35.40
2023-08-23T09:57:22.275Z,35.05
2023-08-23T09:58:24.172Z,35.83
2023-08-23T09:59:26.290Z,34.96
2023-08-23T10:00:29.016Z,35.26
2023-08-23T10:01:33.964Z,35.34
2023-08-23T10:02:37.850Z,34.82
2023-08-23T10:03:40.842Z,35.31
2023-08-23T10:04:43.375Z,34.87
2023-08-23T10:05:46.644Z,35.31
2023-08-23T10:06:50.686Z,35.39
2023-08-23T10:07:55.826Z,35.53
2023-08-23T10:08:57.912Z,35.38
2023-08-23T10:09:59.808Z,34.71
2023-08-23T10:11:01.482Z,34.05
2023-08-23T10:12:05.457Z,34.27
2023-08-23T10:13:07.666Z,34.13
2023-08-23T10:14:11.629Z,34.35
2023-08-23T10:15:16.240Z,33.99
2023-08-23T10:16:20.292Z,34.27
2023-08-23T10:17:26.132Z,34.54
2023-08-23T10:18:31.648Z,33.97
2023-08-23T10:19:33.725Z,34.60
2023-08-23T10:20:36.694Z,34.91
2023-08-23T10:21:39.000Z,34.55
2023-08-23T10:22:41.747Z,34.25
2023-08-23T10:23:44.036Z,33.89
2023-08-23T10:24:49.537Z,33.81
2023-08-23T10:25:51.243Z,34.24
2023-08-23T10:26:54.002Z,34.02
2023-08-23T10:27:57.070Z,34.25
2023-08-23T10:29:01.825Z,33.71
2023-08-23T10:30:20.551Z,33.20
2023-08-23T10:31:26.584Z,33.74
2023-08-23T10:32:37.489Z,33.81
2023-08-23T10:33:41.535Z,33.48
2023-08-23T10:34:43.513Z,33.97
2023-08-23T10:35:47.190Z,33.59
2023-08-23T10:36:48.905Z,33.80
2023-08-23T10:37:54.018Z,33.61
2023-08-23T10:38:57.330Z,33.32
2023-08-23T10:40:01.425Z,33.18
2023-08-23T10:41:03.312Z,33.11
2023-08-23T10:42:05.884Z,33.03
2023-08-23T10:43:15.346Z,33.73
2023-08-23T10:44:17.273Z,33.46
2023-08-23T10:45:19.204Z,33.64
2023-08-23T10:46:23.705Z,33.44
2023-08-23T10:47:26.425Z,33.30
2023-08-23T10:48:28.385Z,33.41
2023-08-23T10:49:30.198Z,33.27
2023-08-23T10:50:34.680Z,33.47
2023-08-23T10:51:36.401Z,33.47
2023-08-23T10:52:39.008Z,33.44
2023-08-23T10:53:42.255Z,33.54
2023-08-23T10:54:44.090Z,33.49
2023-08-23T10:55:46.162Z,33.66
2023-08-23T10:56:48.535Z,33.18
2023-08-23T10:57:50.566Z,32.74
2023-08-23T10:58:52.477Z,32.59
2023-08-23T10:59:54.240Z,33.01
2023-08-23T11:00:56.833Z,32.71
2023-08-23T11:01:58.767Z,32.90
2023-08-23T11:03:00.681Z,32.54
2023-08-23T11:04:06.856Z,32.31
2023-08-23T11:05:09.697Z,32.03
2023-08-23T11:06:14.521Z,32.14
2023-08-23T11:07:18.623Z,32.23
2023-08-23T11:08:20.398Z,31.66
2023-08-23T11:09:25.033Z,31.96
2023-08-23T11:10:26.929Z,31.66
2023-08-23T11:11:31.114Z,32.03
2023-08-23T11:12:32.821Z,31.64
2023-08-23T11:13:34.493Z,31.17
2023-08-23T11:14:36.318Z,31.26
2023-08-23T11:15:38.352Z,31.29
2023-08-23T11:16:43.297Z,31.35
2023-08-23T11:17:45.039Z,31.39
2023-08-23T11:18:46.891Z,31.18
2023-08-23T11:19:51.071Z,31.00
2023-08-23T11:20:54.985Z,31.16
2023-08-23T11:21:57.712Z,31.04
2023-08-23T11:22:59.434Z,31.02
2023-08-23T11:24:07.162Z,30.34
2023-08-23T11:25:09.245Z,31.07
2023-08-23T11:26:10.991Z,30.62
2023-08-23T11:27:15.281Z,30.79
2023-08-23T11:28:20.811Z,30.64
2023-08-23T11:29:23.667Z,30.75
2023-08-23T11:30:25.735Z,30.05
2023-08-23T11:31:28.666Z,30.10
2023-08-23T11:32:31.839Z,29.99
2023-08-23T11:33:34.612Z,29.89
2023-08-23T11:34:38.390Z,30.28
2023-08-23T11:35:40.159Z,29.80
2023-08-23T11:36:42.652Z,29.49
2023-08-23T11:37:44.462Z,29.13
2023-08-23T11:38:50.494Z,29.43
2023-08-23T11:40:06.145Z,28.63
2023-08-23T11:41:09.957Z,28.49
2023-08-23T11:42:11.747Z,28.31
2023-08-23T11:43:22.587Z,28.58
2023-08-23T11:44:28.696Z,28.65
2023-08-23T11:45:38.177Z,28.55
2023-08-23T11:46:39.976Z,28.51
2023-08-23T11:47:42.325Z,28.58
2023-08-23T11:48:44.038Z,28.95
2023-08-23T11:49:49.687Z,28.55
2023-08-23T11:50:58.819Z,28.51
2023-08-23T11:52:00.492Z,28.11
2023-08-23T11:53:08.185Z,28.03
2023-08-23T11:54:12.495Z,27.53
2023-08-23T11:55:21.591Z,27.72
2023-08-23T11:56:23.302Z,28.11
2023-08-23T11:57:25.600Z,27.79
2023-08-23T11:58:27.271Z,27.65
2023-08-23T11:59:31.222Z,28.02
2023-08-23T12:00:34.612Z,27.82
2023-08-23T12:01:45.045Z,27.53
2023-08-23T12:02:47.037Z,27.30
2023-08-23T12:03:48.840Z,27.31
2023-08-23T12:04:50.525Z,27.22
2023-08-23T12:05:52.274Z,26.70
2023-08-23T12:06:54.231Z,27.43
2023-08-23T12:07:55.975Z,27.38
2023-08-23T12:08:57.641Z,26.95
2023-08-23T12:09:59.609Z,26.56
2023-08-23T12:11:03.795Z,26.16
2023-08-23T12:12:05.818Z,26.65
2023-08-23T12:13:10.059Z,26.65
2023-08-23T12:14:11.823Z,25.43
2023-08-23T12:15:13.753Z,25.38
2023-08-23T12:16:17.950Z,25.65
2023-08-23T12:17:19.709Z,24.86
2023-08-23T12:18:23.803Z,25.30
2023-08-23T12:19:31.680Z,24.39
2023-08-23T12:20:34.555Z,24.21
2023-08-23T12:21:36.463Z,24.16
2023-08-23T12:22:44.893Z,24.08
2023-08-23T12:23:46.576Z,24.26
2023-08-23T12:24:50.887Z,24.22
2023-08-23T12:25:52.644Z,24.44
2023-08-23T12:26:54.334Z,24.07
2023-08-23T12:27:56.093Z,23.90
2023-08-23T12:28:58.036Z,23.94
2023-08-23T12:29:59.881Z,24.26
2023-08-23T12:31:01.510Z,24.21
2023-08-23T12:32:03.337Z,23.58
2023-08-23T12:33:05.297Z,23.25
2023-08-23T12:34:09.256Z,22.91
2023-08-23T12:35:11.046Z,22.93
2023-08-23T12:36:17.182Z,22.92
2023-08-23T12:37:19.212Z,22.84
2023-08-23T12:38:20.898Z,23.14
2023-08-23T12:39:23.201Z,22.82
2023-08-23T12:40:25.197Z,23.06
2023-08-23T12:41:28.692Z,22.80
2023-08-23T12:42:30.403Z,23.15
2023-08-23T12:43:35.002Z,23.03
2023-08-23T12:44:36.907Z,22.69
2023-08-23T12:45:38.555Z,22.78
2023-08-23T12:46:40.198Z,22.99
2023-08-23T12:47:41.976Z,23.00
2023-08-23T12:48:43.703Z,22.59
2023-08-23T12:49:45.382Z,22.42
2023-08-23T12:50:49.515Z,22.28
2023-08-23T12:51:51.610Z,22.45
2023-08-23T12:52:53.338Z,22.78
2023-08-23T12:53:57.585Z,22.71
2023-08-23T12:54:59.589Z,22.47
2023-08-23T12:56:01.255Z,21.91
2023-08-23T12:57:03.176Z,21.91
2023-08-23T12:58:05.106Z,22.17
2023-08-23T12:59:06.854Z,21.92
2023-08-23T13:00:27.176Z,22.16
2023-08-23T13:01:31.788Z,22.21
2023-08-23T13:02:33.943Z,22.33
2023-08-23T13:03:35.749Z,21.84
2023-08-23T13:04:37.522Z,21.95
2023-08-23T13:05:39.276Z,22.01
2023-08-23T13:06:41.015Z,22.20
2023-08-23T13:07:43.161Z,22.00
2023-08-23T13:08:47.518Z,21.83
2023-08-23T13:09:50.737Z,21.38
2023-08-23T13:10:54.876Z,21.66
2023-08-23T13:11:56.561Z,21.28
2023-08-23T13:12:58.693Z,21.40
2023-08-23T13:14:00.450Z,21.68
2023-08-23T13:15:02.118Z,21.99
2023-08-23T13:16:06.347Z,21.86
2023-08-23T13:17:08.168Z,21.67
2023-08-23T13:18:09.874Z,21.29
2023-08-23T13:19:11.694Z,21.51
2023-08-23T13:20:13.793Z,21.69
2023-08-23T13:21:15.525Z,21.44
2023-08-23T13:22:17.335Z,21.54
2023-08-23T13:23:19.748Z,21.39
2023-08-23T13:24:22.794Z,21.44
2023-08-23T13:25:24.736Z,21.76
2023-08-23T13:26:27.385Z,21.58
2023-08-23T13:27:29.056Z,21.71
2023-08-23T13:28:30.856Z,21.71
2023-08-23T13:29:32.891Z,21.22
2023-08-23T13:30:34.536Z,20.79
2023-08-23T13:31:36.313Z,21.13
2023-08-23T13:32:38.188Z,21.03
2023-08-23T13:33:39.907Z,20.89
2023-08-23T13:34:41.903Z,20.87